Latest Weather Observations for Bankstown

IDN60801

Issued at 6:23 pm EST Saturday 9 May 2026 (issued every 10 minutes, with the page automatically refreshed every 10 minutes)

About weather observations | Map of weather stations | Latest weather observations for NSW | Other Formats
Station Details ID: 066137 Name: BANKSTOWN AIRPORT AWS Lat: -33.92 Lon: 150.98 Height: 7.2 m
Data from the previous 72 hours. | See also: Recent months at Bankstown
Date/Time
EST
Temp
°C
App
Temp
°C
Dew
Point
°C
Rel
Hum
%
Delta-T
°C
Wind Press
QNH
hPa
Press
MSL
hPa
Rain since
9am
mm
Dir  Spd
km/h
Gust
km/h
Spd
kts
Gust
kts
09/06:00pm 16.1 14.6 9.1 63 3.6 ESE 7 7 4 4 1024.8 1024.8 0.0
09/05:30pm 17.0 15.1 9.2 60 4.0 ESE 9 13 5 7 1024.5 1024.5 0.0
09/05:00pm 17.9 14.5 9.3 57 4.5 SE 17 20 9 11 1024.1 1024.1 0.0
09/04:30pm 18.5 15.1 9.3 55 4.8 ESE 17 22 9 12 1023.8 1023.8 0.0
09/04:00pm 19.2 15.5 9.4 53 5.2 ESE 19 26 10 14 1023.5 1023.5 0.0
09/03:30pm 20.0 16.0 9.0 49 5.8 ESE 20 26 11 14 1023.2 1023.2 0.0
09/03:00pm 20.3 16.3 9.2 49 5.9 ESE 20 26 11 14 1023.1 1023.1 0.0
09/02:30pm 20.9 17.8 8.9 46 6.3 E 15 22 8 12 1023.0 1023.0 0.0
09/02:00pm 22.4 19.9 8.1 40 7.5 N 11 13 6 7 1022.9 1022.9 0.0
09/01:30pm 22.1 20.2 7.5 39 7.6 N 7 11 4 6 1023.0 1023.0 0.0
09/01:00pm 21.7 20.0 7.5 40 7.3 E 6 11 3 6 1023.4 1023.4 0.0
09/12:30pm 20.8 18.4 7.1 41 7.0 W 9 15 5 8 1023.8 1023.8 0.0
09/12:00pm 21.2 19.3 7.4 41 7.1 W 7 13 4 7 1024.3 1024.3 0.0
09/11:30am 20.9 19.4 8.5 45 6.5 WSW 6 11 3 6 1024.7 1024.7 0.0
09/11:00am 19.7 17.6 8.4 48 5.8 SW 9 11 5 6 1024.9 1024.9 0.0
09/10:30am 18.5 15.5 7.9 50 5.4 SW 13 17 7 9 1025.2 1025.2 0.0
09/10:00am 17.8 15.0 8.4 54 4.8 WSW 13 17 7 9 1025.3 1025.3 0.0
09/09:30am 16.7 14.7 8.7 59 4.1 W 9 15 5 8 1025.3 1025.3 0.0
09/09:00am 15.4 13.1 8.9 65 3.3 W 11 13 6 7 1025.4 1025.4 0.0
09/08:30am 14.3 12.6 8.5 68 2.9 WNW 7 9 4 5 1025.4 1025.4 0.0
09/08:00am 13.0 11.2 7.9 71 2.5 NW 7 9 4 5 1025.2 1025.2 0.0
09/07:30am 11.5 10.3 8.0 79 1.7 WNW 4 7 2 4 1024.9 1024.9 0.0
09/07:00am 9.4 7.6 7.0 85 1.1 NW 6 9 3 5 1024.6 1024.6 0.0
09/06:30am 10.3 8.3 7.2 81 1.5 NNW 7 9 4 5 1024.2 1024.2 0.0
09/06:00am 11.4 9.2 7.7 78 1.8 NW 9 13 5 7 1023.8 1023.8 0.0
09/05:30am 12.7 11.0 8.2 74 2.2 WNW 7 11 4 6 1023.3 1023.3 0.0
09/05:00am 12.4 10.7 8.3 76 2.0 NW 7 11 4 6 1023.0 1023.0 0.0
09/04:30am 12.2 10.5 8.5 78 1.8 NW 7 9 4 5 1022.8 1022.8 0.0
09/04:00am 12.0 10.2 7.9 76 2.0 NW 7 9 4 5 1022.6 1022.6 0.0
09/03:30am 11.6 9.7 7.7 77 1.9 NW 7 9 4 5 1022.6 1022.6 0.0
09/03:00am 12.0 10.1 7.5 74 2.2 NW 7 11 4 6 1022.6 1022.6 0.0
09/02:30am 12.2 10.4 7.9 75 2.1 NW 7 9 4 5 1022.5 1022.5 0.0
09/02:00am 12.3 10.4 7.6 73 2.3 W 7 9 4 5 1022.5 1022.5 0.0
09/01:30am 12.5 10.8 7.4 71 2.5 WNW 6 7 3 4 1022.5 1022.5 0.0
09/01:00am 12.5 10.6 7.4 71 2.5 NNW 7 9 4 5 1022.6 1022.6 0.0
09/12:30am 12.4 10.4 7.3 71 2.5 NNW 7 9 4 5 1022.4 1022.4 0.0
09/12:00am 12.8 11.0 7.0 68 2.8 W 6 7 3 4 1022.3 1022.3 0.0
 
Date/Time
EST
Temp
°C
App
Temp
°C
Dew
Point
°C
Rel
Hum
%
Delta-T
°C
Wind Press
QNH
hPa
Press
MSL
hPa
Rain since
9am
mm
Dir  Spd
km/h
Gust
km/h
Spd
kts
Gust
kts
08/11:30pm 13.3 11.3 7.1 66 3.0 NW 7 11 4 6 1022.1 1022.1 0.0
08/11:00pm 12.4 11.9 7.7 73 2.3 CALM 0 0 0 0 1022.1 1022.1 0.0
08/10:30pm 13.7 11.8 6.8 63 3.3 W 6 9 3 5 1022.1 1022.1 0.0
08/10:00pm 14.0 11.9 6.8 62 3.5 WSW 7 11 4 6 1022.1 1022.1 0.0
08/09:30pm 14.1 11.3 6.9 62 3.5 WSW 11 15 6 8 1021.9 1021.9 0.0
08/09:00pm 14.0 11.5 6.6 61 3.6 WSW 9 15 5 8 1021.8 1021.8 0.0
08/08:30pm 14.2 11.4 6.8 61 3.6 W 11 15 6 8 1021.4 1021.4 0.0
08/08:00pm 14.5 12.0 6.6 59 3.8 WSW 9 13 5 7 1021.2 1021.2 0.0
08/07:30pm 14.9 12.0 6.5 57 4.1 W 11 19 6 10 1020.9 1020.9 0.0
08/07:00pm 15.6 12.0 6.6 55 4.4 W 15 24 8 13 1020.3 1020.3 0.0
08/06:30pm 16.0 12.3 6.4 53 4.7 W 15 26 8 14 1019.9 1019.9 0.0
08/06:00pm 16.6 12.1 6.1 50 5.1 W 19 30 10 16 1019.4 1019.4 0.0
08/05:30pm 16.9 13.2 6.1 49 5.3 W 15 24 8 13 1019.1 1019.1 0.0
08/05:00pm 17.9 13.1 5.5 44 6.0 WSW 20 32 11 17 1018.3 1018.3 0.0
08/04:30pm 18.4 13.2 5.3 42 6.4 WSW 22 35 12 19 1017.6 1017.6 0.0
08/04:00pm 19.4 14.6 5.8 41 6.7 W 20 35 11 19 1017.0 1017.0 0.0
08/03:30pm 19.7 14.5 5.7 40 6.9 W 22 35 12 19 1016.8 1016.8 0.0
08/03:00pm 20.2 15.4 5.4 38 7.3 WSW 20 30 11 16 1016.5 1016.5 0.0
08/02:30pm 20.1 15.5 5.4 38 7.2 WSW 19 28 10 15 1016.3 1016.3 0.0
08/02:00pm 20.6 15.8 5.4 37 7.5 W 20 33 11 18 1016.1 1016.1 0.0
08/01:30pm 20.4 14.3 4.8 36 7.6 W 26 41 14 22 1016.2 1016.2 0.0
08/01:00pm 20.2 15.0 5.4 38 7.3 W 22 37 12 20 1016.4 1016.4 0.0
08/12:30pm 19.4 14.0 4.7 38 7.1 WNW 22 35 12 19 1016.8 1016.8 0.0
08/12:00pm 18.8 13.5 4.9 40 6.7 W 22 41 12 22 1017.3 1017.3 0.0
08/11:35am 18.5 12.0 4.7 40 6.6 W 28 46 15 25 1017.7 1017.7 0.0
08/11:30am 18.5 12.4 4.7 40 6.6 W 26 46 14 25 1017.8 1017.8 0.0
08/11:00am 17.7 11.6 4.6 42 6.2 W 26 41 14 22 1018.1 1018.1 0.0
08/10:30am 17.3 10.8 4.6 43 6.0 W 28 41 15 22 1018.5 1018.5 0.0
08/10:00am 16.9 13.0 5.5 47 5.5 W 15 24 8 13 1018.7 1018.7 0.0
08/09:30am 15.3 12.0 4.7 49 5.0 NW 11 20 6 11 1018.7 1018.7 0.0
08/09:00am 14.2 11.3 4.5 52 4.5 NW 9 13 5 7 1018.8 1018.8 0.0
08/08:30am 13.1 10.1 4.3 55 4.0 WNW 9 15 5 8 1018.8 1018.8 0.0
08/08:00am 11.1 8.1 3.9 61 3.2 NNW 9 15 5 8 1018.6 1018.6 0.0
08/07:30am 9.7 6.9 3.4 65 2.7 N 7 9 4 5 1018.5 1018.5 0.0
08/07:00am 8.5 5.3 3.1 69 2.3 N 9 11 5 6 1018.4 1018.4 0.0
08/06:30am 8.8 5.6 3.0 67 2.5 WNW 9 13 5 7 1018.4 1018.4 0.0
08/06:00am 8.3 5.4 2.8 68 2.3 NW 7 11 4 6 1018.4 1018.4 0.0
08/05:30am 8.8 5.9 2.8 66 2.5 NNW 7 11 4 6 1018.2 1018.2 0.0
08/05:00am 8.8 5.5 2.6 65 2.6 NNW 9 13 5 7 1018.1 1018.1 0.0
08/04:30am 8.8 5.9 2.4 64 2.7 NW 7 11 4 6 1018.3 1018.3 0.0
08/04:00am 9.8 6.1 2.2 59 3.2 W 11 17 6 9 1018.1 1018.1 0.0
08/03:30am 10.1 6.0 2.2 58 3.3 W 13 17 7 9 1018.3 1018.3 0.0
08/03:00am 10.2 6.1 2.1 57 3.4 W 13 19 7 10 1018.6 1018.6 0.0
08/02:30am 10.4 6.3 2.0 56 3.5 W 13 20 7 11 1018.8 1018.8 0.0
08/02:00am 10.0 5.4 1.6 56 3.5 W 15 24 8 13 1019.0 1019.0 0.0
08/01:30am 10.2 5.6 1.3 54 3.7 W 15 24 8 13 1019.3 1019.3 0.0
08/01:00am 10.4 5.7 1.0 52 3.9 W 15 24 8 13 1019.5 1019.5 0.0
08/12:30am 10.6 5.1 0.3 49 4.2 W 19 28 10 15 1019.7 1019.7 0.0
08/12:00am 10.2 5.8 0.3 50 4.0 W 13 19 7 10 1019.8 1019.8 0.0
 
Date/Time
EST
Temp
°C
App
Temp
°C
Dew
Point
°C
Rel
Hum
%
Delta-T
°C
Wind Press
QNH
hPa
Press
MSL
hPa
Rain since
9am
mm
Dir  Spd
km/h
Gust
km/h
Spd
kts
Gust
kts
07/11:30pm 10.2 6.6 0.3 50 4.0 WNW 9 15 5 8 1019.7 1019.7 0.0
07/11:00pm 10.3 5.5 0.3 50 4.0 W 15 22 8 12 1019.5 1019.5 0.0
07/10:30pm 10.5 5.7 0.3 49 4.1 W 15 26 8 14 1019.6 1019.6 0.0
07/10:00pm 11.0 5.8 0.1 47 4.4 W 17 28 9 15 1019.8 1019.8 0.0
07/09:30pm 11.0 5.4 -0.2 46 4.5 WNW 19 28 10 15 1019.8 1019.8 0.0
07/09:00pm 11.4 5.6 -0.1 45 4.7 W 20 32 11 17 1019.6 1019.6 0.0
07/08:30pm 11.5 5.9 -0.3 44 4.8 W 19 28 10 15 1019.4 1019.4 0.0
07/08:00pm 11.9 6.2 -0.6 42 5.0 W 19 28 10 15 1019.1 1019.1 0.0
07/07:30pm 12.1 6.2 -0.7 41 5.2 W 20 35 11 19 1018.8 1018.8 0.0
07/07:00pm 12.4 7.1 -0.8 40 5.3 WSW 17 30 9 16 1018.5 1018.5 0.0
07/06:30pm 12.9 7.0 -1.1 38 5.6 W 20 35 11 19 1018.1 1018.1 0.0
07/06:00pm 12.8 7.4 -1.1 38 5.6 W 17 30 9 16 1017.5 1017.5 0.0
07/05:30pm 13.3 5.4 -1.4 36 5.9 W 30 50 16 27 1016.9 1016.9 0.0
07/05:22pm 13.5 6.0 -1.6 35 6.1 W 28 46 15 25 1016.8 1016.8 0.0
07/05:00pm 13.7 6.6 -1.5 35 6.1 W 26 39 14 21 1016.6 1016.6 0.0
07/04:30pm 14.4 6.5 -1.6 33 6.5 WSW 30 50 16 27 1016.5 1016.5 0.0
07/04:07pm 14.8 6.5 -1.7 32 6.7 W 32 50 17 27 1016.0 1016.0 0.0
07/04:00pm 15.0 7.5 -1.5 32 6.7 W 28 44 15 24 1016.0 1016.0 0.0
07/03:30pm 15.8 7.9 -1.3 31 7.1 W 30 50 16 27 1015.8 1015.8 0.0
07/03:05pm 16.0 8.4 -2.0 29 7.3 WSW 28 46 15 25 1015.5 1015.5 0.0
07/03:00pm 16.1 8.2 -1.5 30 7.3 WSW 30 46 16 25 1015.5 1015.5 0.0
07/02:30pm 16.2 8.1 -2.8 27 7.6 W 30 48 16 26 1015.1 1015.1 0.0
07/02:29pm 16.2 8.1 -2.8 27 7.6 W 30 48 16 26 1015.2 1015.2 0.0
07/02:00pm 16.6 9.0 -2.5 27 7.8 W 28 44 15 24 1014.9 1014.9 0.0
07/01:30pm 16.7 9.1 -2.4 27 7.8 W 28 50 15 27 1014.6 1014.6 0.0
07/01:00pm 16.8 9.0 -3.9 24 8.2 W 28 41 15 22 1014.5 1014.5 0.0
07/12:36pm 16.4 8.1 -5.3 22 8.3 W 30 48 16 26 1014.7 1014.7 0.0
07/12:30pm 16.5 9.0 -4.7 23 8.2 W 26 41 14 22 1014.7 1014.7 0.0
07/12:00pm 17.3 10.4 -2.4 26 8.1 W 24 43 13 23 1014.8 1014.8 0.0
07/11:30am 16.6 7.3 -5.2 22 8.4 W 35 57 19 31 1014.7 1014.7 0.0
07/11:00am 15.9 8.5 1.6 38 6.3 WSW 30 48 16 26 1014.6 1014.6 0.0
07/10:30am 14.9 7.9 4.3 49 4.9 WSW 30 52 16 28 1015.0 1015.0 0.0
07/10:21am 15.2 9.5 5.1 51 4.8 WSW 24 50 13 27 1014.7 1014.7 0.0
07/10:00am 17.9 14.7 7.0 49 5.4 NW 13 19 7 10 1014.1 1014.1 0.0
07/09:30am 17.3 14.6 7.4 52 5.0 WNW 11 15 6 8 1014.1 1014.1 0.0
07/09:00am 16.3 14.0 7.5 56 4.4 NNW 9 15 5 8 1014.2 1014.2 0.0
07/08:30am 15.2 12.7 8.2 63 3.5 NNW 11 13 6 7 1014.2 1014.2 0.0
07/08:00am 14.0 11.6 6.8 62 3.5 NNW 9 13 5 7 1014.0 1014.0 0.0
07/07:30am 12.3 10.4 7.6 73 2.3 NNW 7 11 4 6 1013.8 1013.8 0.0
07/07:00am 9.3 8.5 6.6 83 1.3 CALM 0 0 0 0 1013.6 1013.6 0.0
07/06:30am 10.4 9.5 6.2 75 2.0 CALM 0 6 0 3 1013.6 1013.6 0.0
07/06:00am 11.4 8.8 6.1 70 2.5 NNW 9 11 5 6 1013.4 1013.4 0.0
07/05:30am 11.9 9.2 5.5 65 3.0 WSW 9 15 5 8 1013.8 1013.8 0.0
07/05:00am 11.7 8.7 6.0 68 2.7 WSW 11 17 6 9 1013.6 1013.6 0.0
07/04:30am 12.0 9.1 6.5 69 2.6 W 11 17 6 9 1013.2 1013.2 0.0
07/04:00am 11.6 9.2 7.1 74 2.2 W 9 17 5 9 1013.1 1013.1 0.0
07/03:30am 10.0 8.3 8.3 89 0.8 W 7 13 4 7 1013.4 1013.4 0.0
07/03:00am 10.2 8.9 9.3 94 0.4 NW 6 7 3 4 1013.7 1013.7 0.0
07/02:30am 10.8 9.7 9.9 94 0.5 N 6 7 3 4 1013.9 1013.9 0.0
07/02:00am 11.4 11.6 10.6 95 0.4 CALM 0 0 0 0 1014.2 1014.2 0.0
07/01:30am 12.0 11.1 11.5 97 0.3 NW 7 11 4 6 1014.4 1014.4 0.0
07/01:00am 11.7 10.7 11.1 96 0.3 WNW 7 9 4 5 1014.6 1014.6 0.0
07/12:30am 11.7 12.1 11.1 96 0.3 CALM 0 0 0 0 1014.7 1014.7 0.0
07/12:09am 11.8 12.2 11.2 96 0.3 CALM 0 0 0 0 1014.9 1014.9 0.0
07/12:00am 12.3 12.8 11.7 96 0.3 CALM 0 0 0 0 1015.0 1015.0 0.0
 
Date/Time
EST
Temp
°C
App
Temp
°C
Dew
Point
°C
Rel
Hum
%
Delta-T
°C
Wind Press
QNH
hPa
Press
MSL
hPa
Rain since
9am
mm
Dir  Spd
km/h
Gust
km/h
Spd
kts
Gust
kts
06/11:47pm 12.5 13.1 11.9 96 0.3 CALM 0 0 0 0 1014.8 1014.8 0.0
06/11:30pm 12.5 13.1 11.9 96 0.3 CALM 0 0 0 0 1014.8 1014.8 0.0
06/11:00pm 12.8 13.4 11.9 94 0.5 CALM 0 0 0 0 1015.0 1015.0 0.0
06/10:30pm 13.0 13.6 11.9 93 0.6 CALM 0 0 0 0 1015.5 1015.5 0.0
06/10:00pm 13.4 14.1 12.3 93 0.6 CALM 0 0 0 0 1016.0 1016.0 0.0
06/09:30pm 14.0 14.2 13.2 95 0.4 SE 4 7 2 4 1016.1 1016.1 0.0
06/09:00pm 14.3 15.3 13.2 93 0.6 CALM 0 0 0 0 1016.1 1016.1 0.0
06/08:30pm 14.5 15.4 12.9 90 0.9 CALM 0 0 0 0 1016.2 1016.2 0.0
06/08:00pm 15.4 16.6 13.8 90 0.9 CALM 0 6 0 3 1016.3 1016.3 0.0
06/07:30pm 15.7 16.4 13.4 86 1.3 SE 2 7 1 4 1016.3 1016.3 0.0
06/07:00pm 16.6 17.2 13.1 80 2.0 NE 2 7 1 4 1016.2 1016.2 0.0
06/06:30pm 18.5 18.1 14.0 75 2.6 ENE 9 11 5 6 1016.2 1016.2 0.0

Other formats

Comma delimited format used in spreadsheet applications
http://www.bom.gov.au/fwo/IDN60801/IDN60801.94765.axf

JavaScript Object Notation format (JSON) in row-major order
http://www.bom.gov.au/fwo/IDN60801/IDN60801.94765.json

Data quality

Most of these data are generated automatically and are frequently updated. Quality checks on data are not normally performed. It is possible for incorrect values to appear. Refer to information at About Latest Weather Observations and please check the disclaimer before using these data.